Observations for Trim Market St
| Time | AQI | Temp °C | Hum % | Pres Pa | CO μg/m³ | H₂S μg/m³ | NO μg/m³ | NO₂ μg/m³ | O₃ μg/m³ | SO₂ μg/m³ | PM1 μg/m³ | PM2.5 μg/m³ | PM10 μg/m³ |
|---|---|---|---|---|---|---|---|---|---|---|---|---|---|
| Thursday 16 July 2026 | |||||||||||||
| 07:56 | 1 | 26.8 | 54 | 57,275 | 0.33 | 0 | 0 | 0 | 0 | 0 | 4.99 | 7.87 | 11.85 |
| 07:55 | 1 | 26.7 | 55 | 57,375 | 0.4 | 0 | 0 | 0 | 0 | 0 | 7.84 | 14.44 | 19.73 |
| 07:54 | 1 | 26.5 | 56 | 57,640 | 0.47 | 0 | 0 | 0 | 0 | 0 | 7.13 | 10.83 | 14.66 |
| 07:53 | 1 | 26.3 | 56 | 57,731 | 0.42 | 0 | 0 | 0 | 0 | 0 | 6.41 | 10.3 | 14.63 |
| 07:52 | 1 | 26.2 | 56 | 57,747 | 0.43 | 0 | 0 | 0 | 0 | 0 | 7.13 | 9.77 | 13.9 |
| 07:51 | 1 | 26 | 57 | 57,751 | 0.45 | 0 | 0 | 0 | 0 | 0 | 6.41 | 8.72 | 11.76 |
| 07:50 | 1 | 25.9 | 57 | 57,743 | 0.45 | 0 | 0 | 0.48 | 0 | 0 | 7.84 | 11.22 | 15.26 |
| 07:48 | 1 | 25.5 | 58 | 57,724 | 1.68 | 0 | 2.35 | 5.99 | 0 | 0 | 9.98 | 12.68 | 18 |
| 07:37 | 1 | 23.6 | 62 | 57,497 | 0.38 | 0 | 0 | 0.74 | 0 | 0 | 7.13 | 9.89 | 13.59 |
| 07:36 | 1 | 23.5 | 62 | 57,466 | 0.38 | 0 | 0.28 | 1.33 | 0 | 0 | 7.84 | 9.87 | 14.25 |
| 07:34 | 1 | 23.2 | 63 | 57,402 | 0.38 | 0 | 0.39 | 2.14 | 0 | 0 | 7.13 | 11.82 | 18.22 |
| 07:33 | 1 | 23.1 | 63 | 57,372 | 0.37 | 0 | 0 | 1.34 | 0 | 0 | 5.7 | 7.83 | 12.2 |
| 07:28 | 1 | 22.5 | 65 | 57,133 | 0.41 | 0 | 0 | 2.39 | 0 | 0 | 7.84 | 11.17 | 16.71 |
| 07:27 | 1 | 22.3 | 66 | 57,069 | 0.42 | 0 | 0.92 | 4.1 | 0 | 0 | 7.13 | 10.65 | 15.37 |
| 07:25 | 1 | 22.1 | 66 | 56,920 | 0.43 | 0 | 0 | 4.58 | 0 | 0 | 7.84 | 13.06 | 18.57 |
| 07:24 | 1 | 22 | 67 | 56,836 | 0.43 | 0 | 0 | 3.26 | 1.55 | 0 | 5.7 | 9.6 | 15.94 |
| 07:23 | 1 | 21.8 | 67 | 56,758 | 0.43 | 0 | 1.51 | 4.17 | 0 | 0 | 7.84 | 10.55 | 15.91 |
| 07:22 | 1 | 21.6 | 67 | 56,662 | 0.41 | 0 | 0.56 | 3.6 | 0 | 0 | 7.84 | 11.03 | 15.25 |
| 07:21 | 1 | 21.5 | 68 | 56,570 | 0.41 | 0 | 0 | 3.19 | 0.89 | 0 | 6.41 | 13.45 | 18.44 |
| 07:20 | 1 | 21.3 | 68 | 56,468 | 0.42 | 0 | 0 | 2.41 | 0.46 | 0 | 7.13 | 10.5 | 14.57 |